Time;durP1;ratioP1;P1;durP2;ratioP2;P2;SDS_P1;SDS_P2;PMS_P1;PMS_P2;Temp;Humidity;BMP_temperature;BMP_pressure;BME280_temperature;BME280_humidity;BME280_pressure;Samples;Min_cycle;Max_cycle;Signal;HPM_P1;HPM_P2
2022/06/25 00:01:44;;;;;;;3.97;3.57;;;;;;;15.75;100.00;99663.88;5041795;28;20225;-69
2022/06/25 00:05:27;;;;;;;5.07;3.80;;;;;;;15.74;100.00;99662.25;5053156;28;20177;-69
2022/06/25 00:06:55;;;;;;;7.33;4.20;;;;;;;15.77;100.00;99676.72;5053201;28;20603;-69
2022/06/25 00:09:21;;;;;;;9.20;3.73;;;;;;;15.74;100.00;99675.22;5052849;28;20189;-69
2022/06/25 00:14:30;;;;;;;7.37;4.50;;;;;;;15.70;100.00;99681.56;5052471;28;20185;-68
2022/06/25 00:16:56;;;;;;;6.07;4.30;;;;;;;15.60;100.00;99691.91;5052684;28;20181;-67
2022/06/25 00:19:23;;;;;;;8.10;3.70;;;;;;;15.64;100.00;99685.53;5036226;28;20534;-68
2022/06/25 00:21:49;;;;;;;6.33;3.50;;;;;;;15.62;100.00;99697.78;5014328;28;20318;-68
2022/06/25 00:24:16;;;;;;;5.53;3.93;;;;;;;15.49;100.00;99690.19;5042417;28;20192;-69
2022/06/25 00:26:42;;;;;;;6.30;3.97;;;;;;;15.47;100.00;99686.09;5051115;28;20176;-68
2022/06/25 00:29:08;;;;;;;4.20;3.53;;;;;;;15.45;100.00;99701.75;5052395;28;20177;-69
2022/06/25 00:31:33;;;;;;;7.60;4.17;;;;;;;15.45;100.00;99693.97;5053694;28;20228;-68
2022/06/25 00:33:58;;;;;;;5.63;3.43;;;;;;;15.27;100.00;99696.28;5051159;28;20566;-68
2022/06/25 00:36:24;;;;;;;6.23;3.73;;;;;;;15.29;100.00;99709.97;5052545;28;20260;-69
2022/06/25 00:38:49;;;;;;;6.90;3.57;;;;;;;15.26;100.00;99712.78;5050712;28;20189;-69
2022/06/25 00:41:14;;;;;;;7.50;4.20;;;;;;;15.25;100.00;99707.72;5051276;28;20224;-69
2022/06/25 00:43:40;;;;;;;4.77;3.63;;;;;;;15.21;100.00;99712.34;5055274;28;20186;-69
2022/06/25 00:46:06;;;;;;;4.53;3.83;;;;;;;15.12;100.00;99713.06;5038740;28;20248;-69
2022/06/25 00:48:32;;;;;;;6.33;4.00;;;;;;;15.17;100.00;99709.16;5041691;28;20579;-69
2022/06/25 00:50:58;;;;;;;7.27;3.73;;;;;;;15.17;100.00;99716.13;5037794;28;20263;-69
2022/06/25 00:53:31;;;;;;;6.67;3.80;;;;;;;15.14;100.00;99724.97;5046162;28;20182;-68
2022/06/25 00:55:59;;;;;;;5.07;3.97;;;;;;;15.17;100.00;99716.94;5045629;28;20178;-68
2022/06/25 00:58:29;;;;;;;7.70;3.10;;;;;;;15.15;100.00;99720.59;5043583;28;20185;-68
2022/06/25 01:00:55;;;;;;;9.07;4.17;;;;;;;15.16;100.00;99730.03;5035879;28;20233;-68
2022/06/25 01:03:20;;;;;;;4.80;3.67;;;;;;;15.13;100.00;99725.91;5041719;28;20611;-68
2022/06/25 01:05:45;;;;;;;6.67;3.50;;;;;;;15.12;100.00;99726.00;5051718;28;20196;-68
2022/06/25 01:08:11;;;;;;;6.87;3.43;;;;;;;15.04;100.00;99728.41;5052242;28;20596;-68
2022/06/25 01:10:37;;;;;;;5.57;3.33;;;;;;;14.99;100.00;99715.81;5040619;28;20235;-68
2022/06/25 01:16:24;;;;;;;7.10;3.47;;;;;;;14.94;100.00;99723.94;5046891;28;20709;-69
2022/06/25 01:18:49;;;;;;;5.90;3.80;;;;;;;14.96;100.00;99734.19;5051123;28;20276;-68
2022/06/25 01:21:16;;;;;;;3.93;3.27;;;;;;;14.97;100.00;99734.06;5043065;28;20726;-68
2022/06/25 01:23:41;;;;;;;3.87;3.30;;;;;;;14.98;100.00;99735.72;5050278;28;20185;-68
2022/06/25 01:26:07;;;;;;;5.40;3.37;;;;;;;14.91;100.00;99729.38;5051659;28;20264;-69
2022/06/25 01:28:32;;;;;;;3.70;3.40;;;;;;;14.87;100.00;99737.50;5050431;28;20169;-67
2022/06/25 01:30:58;;;;;;;4.23;3.60;;;;;;;14.75;100.00;99734.94;5040492;28;20245;-68
2022/06/25 01:33:23;;;;;;;7.00;3.77;;;;;;;14.75;100.00;99747.03;5050844;28;20763;-68
2022/06/25 01:35:50;;;;;;;8.83;3.50;;;;;;;14.72;100.00;99740.31;5050124;28;20201;-68
2022/06/25 01:38:15;;;;;;;9.00;4.40;;;;;;;14.72;100.00;99739.50;5051435;28;20672;-67
2022/06/25 01:40:40;;;;;;;5.30;4.27;;;;;;;14.62;100.00;99742.78;5040412;28;20698;-67
2022/06/25 01:43:06;;;;;;;7.47;3.63;;;;;;;14.60;100.00;99742.09;5050368;28;20209;-67
2022/06/25 01:45:37;;;;;;;6.50;3.70;;;;;;;14.60;100.00;99741.25;5049944;28;20579;-67
2022/06/25 01:48:04;;;;;;;8.53;4.03;;;;;;;14.66;100.00;99745.97;5051176;28;20256;-67
2022/06/25 01:50:30;;;;;;;5.97;3.67;;;;;;;14.64;100.00;99740.09;5038312;28;20221;-68
2022/06/25 01:52:56;;;;;;;5.57;3.17;;;;;;;14.58;100.00;99746.53;5036963;28;20268;-68
2022/06/25 01:55:21;;;;;;;6.53;3.47;;;;;;;14.60;100.00;99746.41;5048548;28;20263;-68
2022/06/25 01:57:48;;;;;;;4.90;4.13;;;;;;;14.56;100.00;99751.00;5038871;28;20350;-68
2022/06/25 02:00:20;;;;;;;6.20;3.33;;;;;;;14.63;100.00;99744.41;5039109;28;20209;-68
2022/06/25 02:02:46;;;;;;;5.60;3.50;;;;;;;14.63;100.00;99749.59;5050278;28;20221;-68
2022/06/25 02:05:13;;;;;;;4.27;3.90;;;;;;;14.67;100.00;99745.88;5049948;28;20236;-67
2022/06/25 02:07:39;;;;;;;11.33;3.63;;;;;;;14.66;100.00;99756.34;5049515;28;20181;-67
2022/06/25 02:10:06;;;;;;;5.13;3.60;;;;;;;14.63;100.00;99757.38;5039029;28;20191;-69
2022/06/25 02:12:31;;;;;;;4.30;3.70;;;;;;;14.50;100.00;99757.50;5025896;28;20729;-67
2022/06/25 02:14:56;;;;;;;4.60;3.90;;;;;;;14.43;100.00;99755.50;5046379;28;20264;-69
2022/06/25 02:17:22;;;;;;;4.10;3.60;;;;;;;14.36;100.00;99757.72;5049761;28;20177;-69
2022/06/25 02:19:47;;;;;;;6.70;3.83;;;;;;;14.26;100.00;99764.53;5049089;28;20243;-69
2022/06/25 02:22:14;;;;;;;5.50;3.60;;;;;;;14.22;100.00;99753.59;5024709;28;20225;-69
2022/06/25 02:24:44;;;;;;;4.90;3.43;;;;;;;14.18;100.00;99762.53;5051080;28;20181;-69
2022/06/25 02:27:10;;;;;;;6.23;3.70;;;;;;;14.26;100.00;99767.94;5049652;28;20182;-69
2022/06/25 02:29:35;;;;;;;5.33;4.10;;;;;;;14.31;100.00;99772.78;5048708;28;20638;-68
2022/06/25 02:32:01;;;;;;;6.57;3.90;;;;;;;14.34;100.00;99773.38;5039452;28;20240;-68
2022/06/25 02:34:26;;;;;;;6.00;3.80;;;;;;;14.39;100.00;99773.03;5051121;28;20177;-68
2022/06/25 02:36:52;;;;;;;5.90;3.83;;;;;;;14.33;100.00;99774.28;5051063;28;20227;-68
2022/06/25 02:39:17;;;;;;;4.10;3.70;;;;;;;14.30;100.00;99776.28;5048906;28;20182;-68
2022/06/25 02:41:43;;;;;;;6.77;3.80;;;;;;;14.39;100.00;99774.78;5039603;28;20681;-68
2022/06/25 02:44:09;;;;;;;6.67;4.30;;;;;;;14.38;100.00;99776.53;5046662;28;20242;-69
2022/06/25 02:46:34;;;;;;;6.03;4.17;;;;;;;14.43;100.00;99778.78;5051404;28;20204;-68
2022/06/25 02:48:59;;;;;;;5.10;3.70;;;;;;;14.48;100.00;99772.31;5054057;28;20260;-68
2022/06/25 02:51:25;;;;;;;6.67;4.10;;;;;;;14.50;100.00;99774.81;5043258;28;20241;-69
2022/06/25 02:53:50;;;;;;;6.17;3.73;;;;;;;14.49;100.00;99779.13;5054033;28;20212;-68
2022/06/25 02:59:02;;;;;;;5.90;3.63;;;;;;;14.47;100.00;99768.06;5051963;28;20565;-68
2022/06/25 03:01:29;;;;;;;4.70;4.00;;;;;;;14.47;100.00;99773.25;5021229;28;20221;-69
2022/06/25 03:03:55;;;;;;;4.40;4.00;;;;;;;14.49;100.00;99775.72;5049414;28;20186;-69
2022/06/25 03:06:21;;;;;;;7.03;4.23;;;;;;;14.45;100.00;99766.53;5052930;28;20173;-68
2022/06/25 03:08:47;;;;;;;7.33;4.40;;;;;;;14.45;100.00;99780.31;5051658;28;20188;-69
2022/06/25 03:11:13;;;;;;;6.17;3.97;;;;;;;14.50;100.00;99770.44;5033728;28;20226;-68
2022/06/25 03:13:39;;;;;;;8.17;4.27;;;;;;;14.50;100.00;99777.38;5046017;28;20974;-60
2022/06/25 03:16:06;;;;;;;5.83;5.17;;;;;;;14.67;100.00;99766.59;5038183;28;20298;-61
2022/06/25 03:18:32;;;;;;;8.77;4.80;;;;;;;14.60;100.00;99769.72;5045060;28;20173;-59
2022/06/25 03:20:58;;;;;;;7.93;5.40;;;;;;;14.75;100.00;99773.75;5045079;28;20240;-60
2022/06/25 03:23:23;;;;;;;7.33;4.80;;;;;;;14.77;100.00;99779.66;5062057;28;20177;-60
2022/06/25 03:25:49;;;;;;;10.83;4.90;;;;;;;14.71;100.00;99777.53;5053588;28;20189;-61
2022/06/25 03:28:15;;;;;;;9.70;5.20;;;;;;;14.68;100.00;99782.94;5054008;28;20197;-61
2022/06/25 03:30:41;;;;;;;6.33;4.83;;;;;;;14.53;100.00;99787.50;5015344;28;20226;-61
2022/06/25 03:33:06;;;;;;;9.60;4.83;;;;;;;14.50;100.00;99785.97;5040913;28;20185;-61
2022/06/25 03:35:31;;;;;;;8.87;4.97;;;;;;;14.61;100.00;99784.31;5052087;28;20169;-60
2022/06/25 03:37:57;;;;;;;8.63;5.23;;;;;;;14.67;100.00;99781.28;5053750;28;20220;-61
2022/06/25 03:40:22;;;;;;;5.43;4.37;;;;;;;14.68;100.00;99790.69;5045457;28;20237;-59
2022/06/25 03:42:48;;;;;;;6.83;4.80;;;;;;;14.74;100.00;99782.47;5066285;28;20280;-60
2022/06/25 03:45:14;;;;;;;28.80;5.20;;;;;;;14.63;100.00;99782.44;5052036;28;20502;-61
2022/06/25 03:47:40;;;;;;;7.13;5.17;;;;;;;14.56;100.00;99786.44;5053270;28;20268;-61
2022/06/25 03:50:06;;;;;;;8.40;5.13;;;;;;;14.62;100.00;99785.97;5043138;28;20232;-59
2022/06/25 03:52:31;;;;;;;7.77;4.93;;;;;;;14.56;100.00;99791.59;5051833;28;20738;-59
2022/06/25 03:54:57;;;;;;;9.87;4.70;;;;;;;14.75;100.00;99791.03;5046028;28;20193;-60
2022/06/25 03:57:22;;;;;;;7.73;4.70;;;;;;;14.95;100.00;99789.53;5052688;28;20231;-60
2022/06/25 03:59:47;;;;;;;4.50;4.10;;;;;;;15.06;100.00;99786.06;5051824;28;20537;-59
2022/06/25 04:02:12;;;;;;;5.07;4.27;;;;;;;15.08;100.00;99791.97;5041554;28;20228;-61
2022/06/25 04:04:38;;;;;;;7.07;4.20;;;;;;;15.25;100.00;99794.03;5053241;28;20606;-60
2022/06/25 04:07:04;;;;;;;5.07;4.23;;;;;;;15.25;100.00;99790.66;5052644;28;20216;-60
2022/06/25 04:09:29;;;;;;;5.10;3.97;;;;;;;15.27;100.00;99796.50;5052124;28;20207;-60
2022/06/25 04:11:54;;;;;;;4.77;4.20;;;;;;;15.42;100.00;99795.31;5042032;28;20229;-61
2022/06/25 04:14:20;;;;;;;4.70;3.70;;;;;;;15.43;100.00;99798.72;5050657;28;20165;-60
2022/06/25 04:16:45;;;;;;;8.17;4.20;;;;;;;15.55;100.00;99802.09;5053330;28;20213;-59
2022/06/25 04:19:10;;;;;;;8.13;4.30;;;;;;;15.52;100.00;99799.75;5052519;28;20177;-60
2022/06/25 04:21:36;;;;;;;5.97;4.17;;;;;;;15.43;100.00;99802.13;5041428;28;20660;-59
2022/06/25 04:24:01;;;;;;;8.53;4.20;;;;;;;15.50;100.00;99797.28;5047866;28;20173;-60
2022/06/25 04:26:26;;;;;;;11.43;4.10;;;;;;;15.52;100.00;99805.75;5052406;28;20648;-60
2022/06/25 04:29:04;;;;;;;7.27;4.83;;;;;;;15.62;100.00;99803.25;5052438;28;20272;-60
2022/06/25 04:31:33;;;;;;;6.23;4.23;;;;;;;15.64;100.00;99798.75;5031724;28;20715;-60
2022/06/25 04:33:59;;;;;;;5.03;3.87;;;;;;;15.79;100.00;99804.50;5052291;28;20200;-60
2022/06/25 04:36:25;;;;;;;5.80;4.00;;;;;;;16.00;100.00;99798.50;5052398;28;20579;-59
2022/06/25 04:38:51;;;;;;;4.73;4.27;;;;;;;15.99;100.00;99813.28;5050534;28;20276;-60
2022/06/25 04:41:16;;;;;;;8.63;4.27;;;;;;;16.17;100.00;99805.72;5032726;28;20233;-60
2022/06/25 04:43:42;;;;;;;4.93;4.17;;;;;;;16.29;100.00;99804.72;5039238;28;20186;-60
2022/06/25 04:46:07;;;;;;;6.83;4.13;;;;;;;16.24;100.00;99801.69;5052296;28;20169;-59
2022/06/25 04:48:33;;;;;;;5.30;3.90;;;;;;;16.32;100.00;99816.59;5052271;28;20255;-62
2022/06/25 04:50:58;;;;;;;9.57;4.13;;;;;;;16.45;100.00;99814.63;5040672;28;20237;-60
2022/06/25 04:53:23;;;;;;;5.03;3.70;;;;;;;16.53;100.00;99815.75;5051418;28;20174;-61
2022/06/25 04:55:49;;;;;;;4.63;4.27;;;;;;;16.57;100.00;99817.97;5046622;28;20190;-60
2022/06/25 04:58:14;;;;;;;6.77;4.27;;;;;;;16.80;100.00;99814.38;5043797;28;20182;-60
2022/06/25 05:00:40;;;;;;;8.40;3.97;;;;;;;16.81;100.00;99813.41;5041205;28;20220;-59
2022/06/25 05:03:09;;;;;;;8.97;3.57;;;;;;;16.87;100.00;99805.09;5051228;28;20236;-60
2022/06/25 05:05:35;;;;;;;5.37;4.00;;;;;;;17.07;100.00;99819.03;5049697;28;20186;-60
2022/06/25 05:08:00;;;;;;;4.57;4.17;;;;;;;17.30;100.00;99824.00;5050509;28;20226;-61
2022/06/25 05:10:26;;;;;;;6.70;3.50;;;;;;;17.44;100.00;99826.22;5040835;28;20245;-61
2022/06/25 05:15:37;;;;;;;5.20;3.60;;;;;;;17.59;100.00;99821.44;5051822;28;20184;-62
2022/06/25 05:18:03;;;;;;;5.00;3.70;;;;;;;17.69;100.00;99824.03;5033831;28;20177;-61
2022/06/25 05:20:29;;;;;;;7.23;3.37;;;;;;;17.59;100.00;99840.44;5040684;28;20236;-61
2022/06/25 05:22:54;;;;;;;3.47;2.77;;;;;;;17.66;100.00;99824.31;5050565;28;20208;-60
2022/06/25 05:25:19;;;;;;;3.83;3.00;;;;;;;17.75;100.00;99833.91;5051816;28;20185;-62
2022/06/25 05:27:45;;;;;;;5.40;2.93;;;;;;;17.96;100.00;99839.00;5051478;28;21033;-60
2022/06/25 05:30:10;;;;;;;6.13;3.10;;;;;;;17.99;100.00;99837.91;5040813;28;20186;-59
2022/06/25 05:32:36;;;;;;;7.67;3.33;;;;;;;18.63;100.00;99839.00;5034809;28;20261;-60
2022/06/25 05:35:02;;;;;;;9.47;3.03;;;;;;;18.95;100.00;99842.19;5050050;28;20188;-61
2022/06/25 05:37:27;;;;;;;3.77;3.23;;;;;;;19.06;100.00;99838.56;5051255;28;20646;-60
2022/06/25 05:39:53;;;;;;;6.47;3.47;;;;;;;19.27;100.00;99840.91;5051114;28;20261;-60
2022/06/25 05:42:19;;;;;;;6.80;4.67;;;;;;;19.14;100.00;99836.88;5040044;28;20304;-60
2022/06/25 05:44:45;;;;;;;4.63;4.10;;;;;;;19.00;100.00;99832.97;5051191;28;20185;-61
2022/06/25 05:47:10;;;;;;;5.50;4.13;;;;;;;19.30;100.00;99841.44;5047644;28;20183;-60
2022/06/25 05:49:36;;;;;;;5.73;4.70;;;;;;;19.36;100.00;99845.25;5030539;28;20182;-61
2022/06/25 05:52:01;;;;;;;5.20;4.80;;;;;;;19.43;100.00;99854.13;5019435;28;20261;-60
2022/06/25 05:54:27;;;;;;;6.03;5.13;;;;;;;19.64;100.00;99845.19;5049061;28;20652;-61
2022/06/25 05:56:53;;;;;;;5.77;4.80;;;;;;;20.02;100.00;99853.72;5030914;28;20228;-60
2022/06/25 05:59:18;;;;;;;5.87;4.73;;;;;;;20.79;100.00;99851.28;5031771;28;20606;-62
2022/06/25 06:01:43;;;;;;;11.33;4.53;;;;;;;20.80;100.00;99858.16;5009603;28;20233;-61
2022/06/25 06:04:09;;;;;;;5.10;4.60;;;;;;;20.41;100.00;99860.34;5034606;28;20177;-62
2022/06/25 06:06:34;;;;;;;6.80;4.50;;;;;;;20.95;100.00;99861.00;5032194;28;20181;-61
2022/06/25 06:08:59;;;;;;;4.73;4.27;;;;;;;21.53;98.33;99868.19;5034565;28;20664;-61
2022/06/25 06:11:25;;;;;;;5.13;3.97;;;;;;;21.91;94.54;99869.41;5020112;28;20283;-61
2022/06/25 06:13:50;;;;;;;7.20;3.80;;;;;;;22.24;91.92;99868.59;5032424;28;20625;-61
2022/06/25 06:16:15;;;;;;;4.40;4.00;;;;;;;21.24;93.66;99885.94;5032768;28;20198;-61
2022/06/25 06:18:40;;;;;;;6.70;4.10;;;;;;;22.05;92.85;99881.03;5028934;28;20260;-61
2022/06/25 06:21:06;;;;;;;5.07;4.20;;;;;;;21.75;92.79;99888.53;5015402;28;20222;-60
2022/06/25 06:23:31;;;;;;;4.87;4.47;;;;;;;21.25;95.11;99897.25;5040480;28;20225;-61
2022/06/25 06:25:56;;;;;;;4.67;4.17;;;;;;;20.66;100.00;99892.66;5036851;28;20182;-61
2022/06/25 06:28:21;;;;;;;5.87;4.20;;;;;;;21.25;97.04;99898.03;5034605;28;20174;-60
2022/06/25 06:30:47;;;;;;;4.73;4.43;;;;;;;21.19;99.28;99897.88;5023741;28;20244;-59
2022/06/25 06:33:12;;;;;;;6.80;4.03;;;;;;;20.59;100.00;99902.09;5028722;28;20229;-61
2022/06/25 06:35:38;;;;;;;6.33;4.73;;;;;;;20.60;100.00;99901.13;5054324;28;20196;-61
2022/06/25 06:38:03;;;;;;;5.73;5.20;;;;;;;20.13;100.00;99897.88;5050683;28;20195;-61
2022/06/25 06:40:28;;;;;;;6.53;5.93;;;;;;;19.77;100.00;99905.69;5034375;28;20704;-60
2022/06/25 06:42:55;;;;;;;7.63;5.37;;;;;;;19.90;100.00;99905.34;5048704;28;20744;-61
2022/06/25 06:45:21;;;;;;;8.60;5.67;;;;;;;20.40;100.00;99901.31;5036487;28;20204;-60
2022/06/25 06:47:46;;;;;;;7.67;5.77;;;;;;;20.54;100.00;99899.97;5034713;28;20637;-61
2022/06/25 06:50:12;;;;;;;7.83;6.00;;;;;;;20.85;99.94;99896.06;5023772;28;20259;-61
2022/06/25 06:52:37;;;;;;;7.57;5.83;;;;;;;20.91;98.89;99906.75;5033492;28;20217;-72
2022/06/25 06:55:04;;;;;;;6.37;5.87;;;;;;;20.62;99.08;99901.81;5053194;28;20277;-66
2022/06/25 06:57:30;;;;;;;6.60;5.87;;;;;;;20.46;99.63;99898.09;5037881;28;20731;-65
2022/06/25 06:59:58;;;;;;;7.97;6.10;;;;;;;20.50;98.66;99898.59;5042338;28;20181;-66
2022/06/25 07:02:24;;;;;;;7.07;6.13;;;;;;;20.27;100.00;99895.69;5014559;28;20712;-65
2022/06/25 07:04:49;;;;;;;6.57;5.93;;;;;;;20.17;100.00;99893.16;5052273;28;20180;-65
2022/06/25 07:07:14;;;;;;;10.43;6.63;;;;;;;20.27;100.00;99893.09;5050441;28;20192;-65
2022/06/25 07:09:39;;;;;;;9.73;6.50;;;;;;;19.97;100.00;99900.31;5053502;28;20243;-66
2022/06/25 07:12:05;;;;;;;7.40;6.47;;;;;;;20.37;100.00;99899.03;5059572;28;20695;-65
2022/06/25 07:14:30;;;;;;;6.43;5.87;;;;;;;20.32;100.00;99893.44;5052821;28;20192;-65
2022/06/25 07:16:55;;;;;;;8.60;5.67;;;;;;;20.47;98.48;99899.75;5042829;28;20232;-65
2022/06/25 07:19:20;;;;;;;6.10;5.50;;;;;;;20.64;98.95;99898.06;5053312;28;20174;-65
2022/06/25 07:21:46;;;;;;;6.73;6.00;;;;;;;20.91;94.89;99893.66;5042460;28;20232;-65
2022/06/25 07:24:11;;;;;;;7.23;6.10;;;;;;;21.06;94.99;99900.91;5053678;28;20177;-65
2022/06/25 07:26:36;;;;;;;9.67;5.73;;;;;;;21.01;94.01;99887.50;5052676;28;20177;-65
2022/06/25 07:29:02;;;;;;;5.97;5.40;;;;;;;21.15;94.30;99889.50;5053422;28;20180;-65
2022/06/25 07:31:28;;;;;;;6.50;5.87;;;;;;;20.74;95.47;99884.06;5001542;28;20236;-65
2022/06/25 07:33:53;;;;;;;6.53;5.73;;;;;;;20.90;98.41;99884.19;5041875;28;20177;-65
2022/06/25 07:36:18;;;;;;;5.87;5.47;;;;;;;20.96;96.96;99887.94;5054112;28;20520;-65
2022/06/25 07:38:44;;;;;;;5.93;5.27;;;;;;;20.95;96.30;99886.34;5053280;28;20301;-67
2022/06/25 07:41:09;;;;;;;6.53;5.93;;;;;;;20.97;98.00;99889.59;5042702;28;20561;-65
2022/06/25 07:43:34;;;;;;;7.77;5.43;;;;;;;21.48;99.33;99896.63;5052816;28;20672;-64
2022/06/25 07:46:00;;;;;;;6.40;5.80;;;;;;;21.70;90.32;99901.28;5053381;28;20196;-65
2022/06/25 07:48:25;;;;;;;7.87;6.10;;;;;;;22.13;88.11;99897.72;5053322;28;20184;-66
2022/06/25 07:53:34;;;;;;;4.70;4.23;;;;;;;25.55;66.09;99901.16;5052633;28;20258;-65
2022/06/25 07:56:00;;;;;;;5.07;3.73;;;;;;;27.45;56.13;99901.25;5045848;28;20194;-64
2022/06/25 07:58:26;;;;;;;5.85;3.97;;;;;;;27.20;52.82;99899.13;5046374;28;20177;-64
2022/06/25 08:00:51;;;;;;;3.65;3.30;;;;;;;28.07;52.03;99902.97;5037290;28;20221;-64
2022/06/25 08:03:18;;;;;;;6.20;3.90;;;;;;;27.97;52.44;99895.41;5042119;28;20221;-65
2022/06/25 08:05:43;;;;;;;6.70;4.22;;;;;;;27.76;50.54;99896.41;5049789;28;20181;-65
2022/06/25 08:08:09;;;;;;;4.85;3.38;;;;;;;27.18;53.52;99887.94;5053245;28;20311;-64
2022/06/25 08:10:34;;;;;;;5.97;3.70;;;;;;;26.65;55.32;99892.94;5039756;28;20663;-65
2022/06/25 08:12:59;;;;;;;5.53;3.42;;;;;;;25.99;56.53;99886.19;5052170;28;20205;-62
2022/06/25 08:15:24;;;;;;;4.45;4.05;;;;;;;25.27;61.05;99893.97;5053148;28;20323;-64
2022/06/25 08:17:50;;;;;;;8.95;3.85;;;;;;;26.13;60.44;99895.03;5052469;28;20189;-64
2022/06/25 08:20:16;;;;;;;4.95;3.25;;;;;;;29.07;45.82;99883.44;5042125;28;20211;-64
2022/06/25 08:22:41;;;;;;;6.28;3.33;;;;;;;30.43;41.69;99896.34;5036620;28;20548;-63
2022/06/25 08:25:10;;;;;;;4.28;3.42;;;;;;;29.84;41.51;99899.28;5052931;28;20530;-65
2022/06/25 08:27:51;;;;;;;3.85;2.78;;;;;;;30.17;42.55;99894.78;5052407;28;20628;-64
2022/06/25 08:30:18;;;;;;;7.28;3.38;;;;;;;28.79;45.28;99892.47;5041646;28;20655;-64
2022/06/25 08:32:44;;;;;;;4.90;3.22;;;;;;;30.62;40.23;99893.75;5051276;28;20632;-65
2022/06/25 08:35:09;;;;;;;4.68;3.00;;;;;;;30.64;42.06;99895.13;5052755;28;20173;-64
2022/06/25 08:37:48;;;;;;;3.05;2.75;;;;;;;33.26;36.44;99890.94;5051031;28;20247;-64
2022/06/25 08:40:15;;;;;;;5.00;3.28;;;;;;;32.39;34.99;99893.47;5042126;28;20236;-65
2022/06/25 08:42:41;;;;;;;3.83;2.60;;;;;;;31.27;37.23;99895.81;5031030;28;20288;-65
2022/06/25 08:45:07;;;;;;;6.35;2.60;;;;;;;29.75;41.20;99893.44;5050816;28;20260;-65
2022/06/25 08:47:32;;;;;;;3.22;2.83;;;;;;;28.60;44.16;99886.22;5050920;28;20276;-64
2022/06/25 08:49:58;;;;;;;3.53;2.78;;;;;;;28.45;44.56;99895.19;5051706;28;20173;-63
2022/06/25 08:52:27;;;;;;;4.10;2.80;;;;;;;26.93;49.45;99895.56;5024505;28;20241;-64
2022/06/25 08:54:54;;;;;;;5.47;3.35;;;;;;;26.29;54.88;99900.00;5048179;28;20190;-65
2022/06/25 08:57:19;;;;;;;5.22;3.20;;;;;;;26.60;57.64;99890.09;5051933;28;20220;-64
2022/06/25 08:59:45;;;;;;;4.22;3.30;;;;;;;26.24;57.30;99894.50;5051644;28;20224;-65
2022/06/25 09:02:10;;;;;;;6.78;3.70;;;;;;;25.84;60.14;99891.50;5040553;28;20275;-64
2022/06/25 09:04:35;;;;;;;4.45;3.25;;;;;;;25.88;59.90;99884.88;5052138;28;20181;-64
2022/06/25 09:07:14;;;;;;;6.93;3.60;;;;;;;27.61;51.08;99875.47;5052137;28;20185;-65
2022/06/25 09:09:45;;;;;;;7.97;3.92;;;;;;;28.36;48.05;99877.13;5050603;28;20672;-64
2022/06/25 09:12:13;;;;;;;3.75;2.60;;;;;;;28.98;45.19;99870.41;5023026;28;20229;-65
2022/06/25 09:14:38;;;;;;;3.95;2.35;;;;;;;29.15;44.88;99865.47;5036836;28;20173;-64
2022/06/25 09:17:08;;;;;;;4.00;2.40;;;;;;;28.42;49.19;99855.94;5051988;28;20555;-65
2022/06/25 09:19:36;;;;;;;6.70;2.55;;;;;;;31.43;41.00;99859.81;5049594;28;20188;-64
2022/06/25 09:22:08;;;;;;;5.50;2.85;;;;;;;30.57;39.74;99857.25;5026738;28;20229;-65
2022/06/25 09:24:51;;;;;;;3.33;2.50;;;;;;;31.48;37.52;99867.09;5050477;28;20181;-63
2022/06/25 09:27:33;;;;;;;4.38;2.75;;;;;;;30.37;40.34;99865.41;5050714;28;20199;-63
2022/06/25 09:30:05;;;;;;;3.50;2.55;;;;;;;30.71;39.16;99863.19;5049927;28;20628;-63
2022/06/25 09:32:44;;;;;;;2.92;2.20;;;;;;;29.85;40.28;99870.94;5019817;28;20291;-65
2022/06/25 09:35:10;;;;;;;5.18;2.40;;;;;;;29.28;42.05;99872.50;5037698;28;20177;-64
2022/06/25 09:37:36;;;;;;;3.08;2.30;;;;;;;29.60;41.21;99872.53;5051462;28;20374;-64
2022/06/25 09:40:02;;;;;;;3.15;2.63;;;;;;;30.57;39.17;99858.03;5049612;28;20633;-63
2022/06/25 09:42:30;;;;;;;5.88;2.65;;;;;;;31.38;37.04;99855.19;5040224;28;20217;-64
2022/06/25 09:45:12;;;;;;;5.03;2.28;;;;;;;30.31;39.92;99845.06;5049865;28;20663;-66
2022/06/25 09:47:43;;;;;;;2.88;2.05;;;;;;;32.49;36.32;99850.28;5051765;28;20268;-64
2022/06/25 09:50:16;;;;;;;3.95;2.80;;;;;;;29.93;38.28;99850.31;5039280;28;20177;-64
2022/06/25 09:52:56;;;;;;;6.10;2.30;;;;;;;28.83;42.91;99846.88;5034058;28;20371;-65
2022/06/25 09:55:28;;;;;;;4.00;2.00;;;;;;;30.71;39.91;99849.91;5049663;28;20565;-65
2022/06/25 09:57:54;;;;;;;4.60;1.70;;;;;;;32.32;35.91;99847.53;5039608;28;20185;-64
2022/06/25 10:00:21;;;;;;;5.15;2.13;;;;;;;32.47;34.67;99853.16;5038031;28;20200;-64
2022/06/25 10:02:48;;;;;;;2.67;1.45;;;;;;;32.57;36.26;99844.56;5037078;28;20208;-64
2022/06/25 10:05:23;;;;;;;4.53;2.05;;;;;;;32.01;34.28;99844.97;5051165;28;20177;-65
2022/06/25 10:08:00;;;;;;;2.92;1.70;;;;;;;32.60;34.42;99848.63;5049595;28;20250;-66
2022/06/25 10:10:28;;;;;;;3.45;1.55;;;;;;;33.51;33.00;99860.44;5038995;28;20229;-65
2022/06/25 10:12:54;;;;;;;4.22;2.10;;;;;;;31.90;35.07;99852.97;5036858;28;20186;-64
2022/06/25 10:15:20;;;;;;;9.05;2.03;;;;;;;30.84;37.29;99846.31;5051066;28;20185;-66
2022/06/25 10:17:47;;;;;;;3.35;1.75;;;;;;;29.10;41.42;99845.91;5049428;28;20605;-63
2022/06/25 10:20:15;;;;;;;5.60;2.10;;;;;;;28.69;43.29;99837.38;5038783;28;20205;-64
2022/06/25 10:22:41;;;;;;;6.30;1.90;;;;;;;30.01;40.20;99837.78;5034585;28;20201;-64
2022/06/25 10:25:10;;;;;;;4.60;1.58;;;;;;;29.96;40.67;99833.13;5049862;28;20169;-64
2022/06/25 10:27:44;;;;;;;4.28;1.85;;;;;;;30.87;38.03;99833.41;5049554;28;20189;-64
2022/06/25 10:30:11;;;;;;;2.92;1.92;;;;;;;29.59;39.09;99833.81;5025061;28;20170;-65
2022/06/25 10:33:03;;;;;;;2.05;1.60;;;;;;;30.35;39.19;99817.03;5049728;28;20208;-63
2022/06/25 10:35:32;;;;;;;7.10;2.00;;;;;;;29.30;40.65;99822.81;5047509;28;20196;-64
2022/06/25 10:38:12;;;;;;;2.63;1.73;;;;;;;28.46;43.52;99819.31;5049453;28;20189;-65
2022/06/25 10:40:47;;;;;;;5.45;1.88;;;;;;;30.01;41.38;99813.94;5039690;28;20221;-64
2022/06/25 10:43:36;;;;;;;6.53;1.58;;;;;;;31.71;38.49;99813.19;5049863;28;20201;-63
2022/06/25 10:46:36;;;;;;;2.72;1.50;;;;;;;30.06;41.97;99819.38;5050837;28;20265;-64
2022/06/25 10:49:10;;;;;;;2.40;1.60;;;;;;;29.07;41.44;99812.72;5049145;28;20177;-64
2022/06/25 10:51:47;;;;;;;5.20;1.95;;;;;;;28.78;41.04;99798.25;5027048;28;20587;-63
2022/06/25 10:54:21;;;;;;;1.88;1.75;;;;;;;26.66;47.60;99800.41;5052981;28;20182;-65
2022/06/25 10:56:49;;;;;;;2.28;1.90;;;;;;;26.78;48.94;99794.59;5037431;28;20548;-65
2022/06/25 10:59:34;;;;;;;2.67;2.00;;;;;;;26.30;49.25;99796.19;5048344;28;20205;-64
2022/06/25 11:02:11;;;;;;;7.50;2.22;;;;;;;25.64;51.65;99784.16;5001692;28;20615;-65
2022/06/25 11:04:38;;;;;;;3.05;1.90;;;;;;;25.58;54.81;99790.19;5049440;28;20608;-64
2022/06/25 11:07:08;;;;;;;2.58;2.28;;;;;;;25.45;53.36;99778.53;5049934;28;20182;-63
2022/06/25 11:09:34;;;;;;;2.42;1.60;;;;;;;25.88;53.01;99782.91;5045722;28;20645;-64
2022/06/25 11:11:59;;;;;;;5.35;1.83;;;;;;;26.04;52.82;99784.44;5042616;28;20228;-64
2022/06/25 11:14:25;;;;;;;3.85;1.95;;;;;;;25.37;50.80;99789.19;5054030;28;20247;-64
2022/06/25 11:16:53;;;;;;;6.68;1.52;;;;;;;24.82;54.71;99786.19;5030924;28;20255;-63
2022/06/25 11:19:21;;;;;;;1.98;1.45;;;;;;;25.05;53.04;99790.47;5050902;28;20174;-64
2022/06/25 11:21:48;;;;;;;2.35;1.60;;;;;;;25.10;51.40;99790.72;5030552;28;20225;-64
2022/06/25 11:24:25;;;;;;;2.35;1.50;;;;;;;24.78;52.28;99777.84;5050699;28;20185;-63
2022/06/25 11:29:39;;;;;;;7.50;3.83;;;;;;;24.86;55.65;99776.91;5053108;28;20199;-64
2022/06/25 11:32:06;;;;;;;8.50;1.87;;;;;;;25.42;54.52;99764.94;4991694;28;20328;-64
2022/06/25 11:34:33;;;;;;;3.15;1.85;;;;;;;25.90;52.12;99767.75;5052269;28;20527;-63
2022/06/25 11:37:08;;;;;;;1.90;1.55;;;;;;;26.33;49.25;99763.34;5053765;28;20189;-65
2022/06/25 11:39:34;;;;;;;3.25;1.38;;;;;;;26.48;53.45;99765.84;5053071;28;20231;-65
2022/06/25 11:42:00;;;;;;;2.50;1.60;;;;;;;26.59;48.87;99762.66;5045212;28;20430;-65
2022/06/25 11:44:26;;;;;;;8.27;1.80;;;;;;;26.41;47.69;99766.63;5052423;28;20276;-66
2022/06/25 11:46:53;;;;;;;1.95;1.77;;;;;;;26.90;46.82;99767.47;5053611;28;20260;-66